createdAt,value
2022-10-12T00:01:50.488Z,63.13
2022-10-12T00:06:51.986Z,63.57
2022-10-12T00:11:53.342Z,63.38
2022-10-12T00:16:54.691Z,63.23
2022-10-12T00:21:56.035Z,63.83
2022-10-12T00:26:57.437Z,64.00
2022-10-12T00:31:58.886Z,63.53
2022-10-12T00:37:00.291Z,63.74
2022-10-12T00:42:01.677Z,64.60
2022-10-12T00:47:14.455Z,64.21
2022-10-12T00:52:19.959Z,64.38
2022-10-12T00:57:22.713Z,64.32
2022-10-12T01:02:27.757Z,64.43
2022-10-12T01:07:29.147Z,64.87
2022-10-12T01:12:31.571Z,64.59
2022-10-12T01:17:43.460Z,63.90
2022-10-12T01:23:04.441Z,64.13
2022-10-12T01:28:19.996Z,64.01
2022-10-12T01:33:31.918Z,65.03
2022-10-12T01:38:41.591Z,64.25
2022-10-12T01:43:44.607Z,64.08
2022-10-12T01:48:49.037Z,64.26
2022-10-12T01:54:08.208Z,64.08
2022-10-12T01:59:29.775Z,64.18
2022-10-12T02:04:39.742Z,65.07
2022-10-12T02:09:41.374Z,64.58
2022-10-12T02:14:47.271Z,64.92
2022-10-12T02:19:58.071Z,64.72
2022-10-12T02:25:01.503Z,64.82
2022-10-12T02:30:03.508Z,64.92
2022-10-12T02:35:10.120Z,65.35
2022-10-12T02:40:34.904Z,64.93
2022-10-12T02:45:38.379Z,65.54
2022-10-12T02:50:40.169Z,64.85
2022-10-12T02:56:10.948Z,65.82
2022-10-12T03:01:14.178Z,65.89
2022-10-12T03:06:15.734Z,66.02
2022-10-12T03:11:17.087Z,65.94
2022-10-12T03:16:18.503Z,65.39
2022-10-12T03:21:19.925Z,65.96
2022-10-12T03:26:21.290Z,66.37
2022-10-12T03:31:22.680Z,65.53
2022-10-12T03:36:24.049Z,65.56
2022-10-12T03:41:25.480Z,66.22
2022-10-12T03:46:26.877Z,66.20
2022-10-12T03:51:28.283Z,66.46
2022-10-12T03:56:29.630Z,65.40
2022-10-12T04:01:31.081Z,65.64
2022-10-12T04:06:32.545Z,65.52
2022-10-12T04:11:33.941Z,65.84
2022-10-12T04:16:35.290Z,65.90
2022-10-12T04:21:36.643Z,66.21
2022-10-12T04:26:38.046Z,66.07
2022-10-12T04:31:40.326Z,65.94
2022-10-12T04:36:41.752Z,66.28
2022-10-12T04:41:43.143Z,66.44
2022-10-12T04:46:44.643Z,66.19
2022-10-12T04:51:46.006Z,66.16
2022-10-12T04:56:48.326Z,66.63
2022-10-12T05:01:50.288Z,66.48
2022-10-12T05:06:51.727Z,65.79
2022-10-12T05:11:53.118Z,66.39
2022-10-12T05:16:54.772Z,66.61
2022-10-12T05:21:56.223Z,66.26
2022-10-12T05:26:57.727Z,65.83
2022-10-12T05:31:59.145Z,66.36
2022-10-12T05:37:01.212Z,66.43
2022-10-12T05:42:03.816Z,66.32
2022-10-12T05:47:05.206Z,66.54
2022-10-12T05:52:06.695Z,66.08
2022-10-12T05:57:08.093Z,66.50
2022-10-12T06:02:18.460Z,66.52
2022-10-12T06:07:19.901Z,66.03
2022-10-12T06:12:21.282Z,66.15
2022-10-12T06:17:22.788Z,66.42
2022-10-12T06:22:24.156Z,66.59
2022-10-12T06:27:25.561Z,66.55
2022-10-12T06:32:26.939Z,66.18
2022-10-12T06:37:49.016Z,66.91
2022-10-12T06:42:54.864Z,66.72
2022-10-12T06:47:59.030Z,66.79
2022-10-12T06:53:00.400Z,66.36
2022-10-12T06:58:01.745Z,66.06
2022-10-12T07:03:03.758Z,66.41
2022-10-12T07:08:05.217Z,66.95
2022-10-12T07:13:06.590Z,66.61
2022-10-12T07:18:07.940Z,66.71
2022-10-12T07:23:09.382Z,66.97
2022-10-12T07:28:10.829Z,66.49
2022-10-12T07:33:12.575Z,66.19
2022-10-12T07:38:14.002Z,66.63
2022-10-12T07:43:16.618Z,66.18
2022-10-12T07:48:20.038Z,66.29
2022-10-12T07:53:21.899Z,66.54
2022-10-12T07:58:23.416Z,65.99
2022-10-12T08:03:24.912Z,65.74
2022-10-12T08:08:26.474Z,65.96
2022-10-12T08:13:28.018Z,65.86
2022-10-12T08:18:30.679Z,65.60
2022-10-12T08:23:32.388Z,65.60
2022-10-12T08:28:34.494Z,65.48
2022-10-12T08:33:36.028Z,65.34
2022-10-12T08:38:43.092Z,65.10
2022-10-12T08:44:06.270Z,64.92
2022-10-12T08:49:19.638Z,64.45
2022-10-12T08:54:25.921Z,63.96
2022-10-12T08:59:29.544Z,64.01
2022-10-12T09:04:49.196Z,63.09
2022-10-12T09:10:15.016Z,62.94
2022-10-12T09:15:22.466Z,62.39
2022-10-12T09:20:23.776Z,62.50
2022-10-12T09:25:28.092Z,62.19
2022-10-12T09:30:30.119Z,61.88
2022-10-12T09:35:32.786Z,61.19
2022-10-12T09:40:34.174Z,61.19
2022-10-12T09:45:36.002Z,60.66
2022-10-12T09:50:48.047Z,60.47
2022-10-12T09:55:55.912Z,59.78
2022-10-12T10:01:21.603Z,59.64
2022-10-12T10:06:25.122Z,59.44
2022-10-12T10:11:30.840Z,59.17
2022-10-12T10:16:32.312Z,58.68
2022-10-12T10:21:35.809Z,58.33
2022-10-12T10:26:57.653Z,58.00
2022-10-12T10:32:16.010Z,57.86
2022-10-12T10:37:22.947Z,57.02
2022-10-12T10:42:30.133Z,56.85
2022-10-12T10:47:32.327Z,57.30
2022-10-12T10:52:36.899Z,56.55
2022-10-12T10:57:42.875Z,56.34
2022-10-12T11:02:59.490Z,55.49
2022-10-12T11:08:20.673Z,55.43
2022-10-12T11:13:36.379Z,55.29
2022-10-12T11:19:18.178Z,54.91
2022-10-12T11:24:26.617Z,54.80
2022-10-12T11:29:28.347Z,54.09
2022-10-12T11:34:46.603Z,53.80
2022-10-12T11:39:51.828Z,53.00
2022-10-12T11:44:54.673Z,52.78
2022-10-12T11:50:00.357Z,52.31
2022-10-12T11:55:38.966Z,51.70
2022-10-12T12:00:54.958Z,51.13
2022-10-12T12:05:56.500Z,50.86
2022-10-12T12:11:17.838Z,50.38
2022-10-12T12:16:19.179Z,50.30
2022-10-12T12:21:20.588Z,49.76
2022-10-12T12:26:28.228Z,49.08
2022-10-12T12:31:30.459Z,48.35
2022-10-12T12:36:34.206Z,47.73
2022-10-12T12:41:56.483Z,47.91
2022-10-12T12:47:01.971Z,48.02
2022-10-12T12:52:13.262Z,47.71
2022-10-12T12:57:52.932Z,47.63
2022-10-12T13:03:22.220Z,47.10
2022-10-12T13:08:35.121Z,46.71
2022-10-12T13:13:58.339Z,46.23
2022-10-12T13:19:05.904Z,46.56
2022-10-12T13:24:19.276Z,46.30
2022-10-12T13:29:51.944Z,45.56
2022-10-12T13:34:56.826Z,45.58
2022-10-12T13:39:58.463Z,46.05
2022-10-12T13:45:02.008Z,46.16
2022-10-12T13:50:15.842Z,45.59
2022-10-12T13:55:17.316Z,46.26
2022-10-12T14:00:21.508Z,46.22
2022-10-12T14:05:25.624Z,46.38
2022-10-12T14:10:32.717Z,46.50
2022-10-12T14:15:37.010Z,46.85
2022-10-12T14:20:39.261Z,47.44
2022-10-12T14:25:55.544Z,47.84
2022-10-12T14:30:57.166Z,47.78
2022-10-12T14:36:20.439Z,47.90
2022-10-12T14:41:37.832Z,48.77
2022-10-12T14:46:41.948Z,48.55
2022-10-12T14:51:43.536Z,48.28
2022-10-12T14:56:45.173Z,48.65
2022-10-12T15:01:51.236Z,48.88
2022-10-12T15:06:53.007Z,49.16
2022-10-12T15:11:54.346Z,49.06
2022-10-12T15:16:57.804Z,49.43
2022-10-12T15:21:59.343Z,49.71
2022-10-12T15:27:00.770Z,50.27
2022-10-12T15:32:02.156Z,50.22
2022-10-12T15:37:08.664Z,50.75
2022-10-12T15:42:12.423Z,50.97
2022-10-12T15:47:14.150Z,51.44
2022-10-12T15:52:17.334Z,51.70
2022-10-12T15:57:18.721Z,51.95
2022-10-12T16:02:27.462Z,52.08
2022-10-12T16:07:28.794Z,52.22
2022-10-12T16:12:30.187Z,52.30
2022-10-12T16:17:31.609Z,52.59
2022-10-12T16:22:33.248Z,52.87
2022-10-12T16:27:35.022Z,53.31
2022-10-12T16:32:36.650Z,53.67
2022-10-12T16:37:38.015Z,53.82
2022-10-12T16:42:39.774Z,54.32
2022-10-12T16:47:42.708Z,54.69
2022-10-12T16:52:44.690Z,54.89
2022-10-12T16:57:47.064Z,55.67
2022-10-12T17:02:48.545Z,56.28
2022-10-12T17:07:49.926Z,56.64
2022-10-12T17:12:51.288Z,57.10
2022-10-12T17:17:54.004Z,57.76
2022-10-12T17:22:55.382Z,58.01
2022-10-12T17:27:56.875Z,58.44
2022-10-12T17:32:58.227Z,58.64
2022-10-12T17:37:59.576Z,58.92
2022-10-12T17:43:00.921Z,59.25
2022-10-12T17:48:02.448Z,59.62
2022-10-12T17:53:03.807Z,59.89
2022-10-12T17:58:05.369Z,59.90
2022-10-12T18:03:06.809Z,60.44
2022-10-12T18:08:08.207Z,60.50
2022-10-12T18:13:09.717Z,60.74
2022-10-12T18:18:15.151Z,60.91
2022-10-12T18:23:17.155Z,61.14
2022-10-12T18:28:18.623Z,61.42
2022-10-12T18:33:20.096Z,61.80
2022-10-12T18:38:21.435Z,62.23
2022-10-12T18:43:22.807Z,62.59
2022-10-12T18:48:24.303Z,62.52
2022-10-12T18:53:28.032Z,62.68
2022-10-12T18:58:29.853Z,63.24
2022-10-12T19:03:31.229Z,63.55
2022-10-12T19:08:32.684Z,63.41
2022-10-12T19:13:37.450Z,63.58
2022-10-12T19:18:39.943Z,63.72
2022-10-12T19:23:44.295Z,63.46
2022-10-12T19:28:48.793Z,63.68
2022-10-12T19:33:50.532Z,64.24
2022-10-12T19:38:58.761Z,64.43
2022-10-12T19:44:01.352Z,64.16
2022-10-12T19:49:03.157Z,65.53
2022-10-12T19:54:05.177Z,65.61
2022-10-12T19:59:07.168Z,65.20
2022-10-12T20:04:11.868Z,65.20
2022-10-12T20:09:14.049Z,65.78
2022-10-12T20:14:15.787Z,65.95
2022-10-12T20:19:17.417Z,65.68
2022-10-12T20:24:20.021Z,65.95
2022-10-12T20:29:21.655Z,65.77
2022-10-12T20:34:23.334Z,65.77
2022-10-12T20:39:25.058Z,66.09
2022-10-12T20:44:26.598Z,66.26
2022-10-12T20:49:31.066Z,66.49
2022-10-12T20:54:33.227Z,66.34
2022-10-12T20:59:36.941Z,66.48
2022-10-12T21:04:38.632Z,66.69
2022-10-12T21:09:40.396Z,66.98
2022-10-12T21:14:41.995Z,67.09
2022-10-12T21:19:43.479Z,67.00
2022-10-12T21:24:45.039Z,66.86
2022-10-12T21:29:46.544Z,66.88
2022-10-12T21:34:48.388Z,67.09
2022-10-12T21:39:54.233Z,67.16
2022-10-12T21:44:56.178Z,67.06
2022-10-12T21:49:57.672Z,67.24
2022-10-12T21:54:59.185Z,66.85
2022-10-12T22:00:00.669Z,67.44
2022-10-12T22:05:02.224Z,67.32
2022-10-12T22:10:04.386Z,67.67
2022-10-12T22:15:08.000Z,67.57
2022-10-12T22:20:10.098Z,67.65
2022-10-12T22:25:11.613Z,67.71
2022-10-12T22:30:13.140Z,67.70
2022-10-12T22:35:14.847Z,67.90
2022-10-12T22:40:16.495Z,67.74
2022-10-12T22:45:17.920Z,68.00
2022-10-12T22:50:19.783Z,68.15
2022-10-12T22:55:22.591Z,68.09
2022-10-12T23:00:24.068Z,68.36
2022-10-12T23:05:26.100Z,67.95
2022-10-12T23:10:27.707Z,68.32
2022-10-12T23:15:29.298Z,68.28
2022-10-12T23:20:30.853Z,68.83
2022-10-12T23:25:32.360Z,68.72
2022-10-12T23:30:34.163Z,68.65
2022-10-12T23:46:16.209Z,68.64
2022-10-12T23:56:46.475Z,68.40
